createdAt,value
2023-03-31T00:00:19.744Z,23.32
2023-03-31T00:00:51.154Z,23.35
2023-03-31T00:01:22.619Z,23.33
2023-03-31T00:01:54.022Z,23.31
2023-03-31T00:02:25.521Z,23.31
2023-03-31T00:02:57.061Z,23.32
2023-03-31T00:03:28.794Z,23.29
2023-03-31T00:04:00.548Z,23.31
2023-03-31T00:04:32.312Z,23.32
2023-03-31T00:05:04.066Z,23.32
2023-03-31T00:05:35.642Z,23.34
2023-03-31T00:06:07.386Z,23.35
2023-03-31T00:06:39.066Z,23.32
2023-03-31T00:07:10.481Z,23.31
2023-03-31T00:07:41.936Z,23.32
2023-03-31T00:08:13.367Z,23.33
2023-03-31T00:08:44.863Z,23.34
2023-03-31T00:09:16.324Z,23.32
2023-03-31T00:09:47.750Z,23.34
2023-03-31T00:10:19.238Z,23.32
2023-03-31T00:10:50.673Z,23.33
2023-03-31T00:11:22.176Z,23.31
2023-03-31T00:11:53.661Z,23.31
2023-03-31T00:12:25.118Z,23.29
2023-03-31T00:12:56.524Z,23.31
2023-03-31T00:13:28.052Z,23.32
2023-03-31T00:13:59.551Z,23.30
2023-03-31T00:14:31.032Z,23.29
2023-03-31T00:15:05.228Z,23.29
2023-03-31T00:15:36.680Z,23.30
2023-03-31T00:16:08.354Z,23.31
2023-03-31T00:16:39.992Z,23.31
2023-03-31T00:17:12.989Z,23.31
2023-03-31T00:17:44.509Z,23.34
2023-03-31T00:18:15.909Z,23.31
2023-03-31T00:18:47.777Z,23.31
2023-03-31T00:19:19.459Z,23.30
2023-03-31T00:19:50.910Z,23.31
2023-03-31T00:20:22.334Z,23.32
2023-03-31T00:20:53.767Z,23.32
2023-03-31T00:21:25.606Z,23.31
2023-03-31T00:21:57.289Z,23.33
2023-03-31T00:22:28.754Z,23.29
2023-03-31T00:23:00.270Z,23.29
2023-03-31T00:23:31.725Z,23.31
2023-03-31T00:24:03.336Z,23.30
2023-03-31T00:24:34.859Z,23.30
2023-03-31T00:25:06.275Z,23.30
2023-03-31T00:25:37.726Z,23.31
2023-03-31T00:26:09.098Z,23.31
2023-03-31T00:26:40.553Z,23.32
2023-03-31T00:27:11.968Z,23.30
2023-03-31T00:27:44.868Z,23.31
2023-03-31T00:28:16.304Z,23.31
2023-03-31T00:28:47.852Z,23.31
2023-03-31T00:29:19.240Z,23.30
2023-03-31T00:29:50.710Z,23.31
2023-03-31T00:30:22.208Z,23.32
2023-03-31T00:30:53.671Z,23.32
2023-03-31T00:31:25.136Z,23.30
2023-03-31T00:31:56.638Z,23.31
2023-03-31T00:32:28.152Z,23.31
2023-03-31T00:32:59.620Z,23.31
2023-03-31T00:33:31.028Z,23.31
2023-03-31T00:34:02.536Z,23.33
2023-03-31T00:34:36.614Z,23.32
2023-03-31T00:35:08.067Z,23.33
2023-03-31T00:35:39.555Z,23.33
2023-03-31T00:36:13.883Z,23.33
2023-03-31T00:36:45.342Z,23.32
2023-03-31T00:37:16.807Z,23.33
2023-03-31T00:37:48.324Z,23.32
2023-03-31T00:38:19.746Z,23.35
2023-03-31T00:38:51.263Z,23.34
2023-03-31T00:39:22.691Z,23.31
2023-03-31T00:39:54.147Z,23.33
2023-03-31T00:40:25.674Z,23.33
2023-03-31T00:40:57.127Z,23.32
2023-03-31T00:41:28.584Z,23.34
2023-03-31T00:42:00.001Z,23.35
2023-03-31T00:42:31.461Z,23.35
2023-03-31T00:43:02.918Z,23.34
2023-03-31T00:43:34.368Z,23.30
2023-03-31T00:44:05.987Z,23.30
2023-03-31T00:44:37.491Z,23.29
2023-03-31T00:45:08.959Z,23.31
2023-03-31T00:45:40.365Z,23.31
2023-03-31T00:46:11.929Z,23.33
2023-03-31T00:46:43.409Z,23.32
2023-03-31T00:47:14.866Z,23.33
2023-03-31T00:47:46.263Z,23.34
2023-03-31T00:48:17.819Z,23.35
2023-03-31T00:48:49.283Z,23.34
2023-03-31T00:49:23.324Z,23.34
2023-03-31T00:49:54.802Z,23.33
2023-03-31T00:50:26.229Z,23.33
2023-03-31T00:50:57.660Z,23.33
2023-03-31T00:51:29.073Z,23.35
2023-03-31T00:52:00.571Z,23.34
2023-03-31T00:52:32.020Z,23.35
2023-03-31T00:53:03.615Z,23.31
2023-03-31T00:53:35.070Z,23.28
2023-03-31T00:54:06.645Z,23.30
2023-03-31T00:54:38.123Z,23.32
2023-03-31T00:55:09.513Z,23.31
2023-03-31T00:55:40.942Z,23.34
2023-03-31T00:56:12.516Z,23.34
2023-03-31T00:56:43.998Z,23.34
2023-03-31T00:57:18.520Z,23.34
2023-03-31T00:57:50.003Z,23.34
2023-03-31T00:58:21.516Z,23.31
2023-03-31T00:58:53.118Z,23.31
2023-03-31T00:59:24.534Z,23.32
2023-03-31T00:59:56.035Z,23.32
2023-03-31T01:00:27.497Z,23.33
2023-03-31T01:00:58.941Z,23.32
2023-03-31T01:01:30.489Z,23.32
2023-03-31T01:02:02.045Z,23.31
2023-03-31T01:02:33.548Z,23.32
2023-03-31T01:03:05.208Z,23.35
2023-03-31T01:03:36.817Z,23.34
2023-03-31T01:04:08.403Z,23.32
2023-03-31T01:04:39.959Z,23.34
2023-03-31T01:05:11.390Z,23.35
2023-03-31T01:05:42.865Z,23.35
2023-03-31T01:06:14.311Z,23.34
2023-03-31T01:06:45.770Z,23.36
2023-03-31T01:07:17.249Z,23.37
2023-03-31T01:07:48.785Z,23.36
2023-03-31T01:08:20.409Z,23.37
2023-03-31T01:08:51.880Z,23.38
2023-03-31T01:09:23.386Z,23.39
2023-03-31T01:09:54.867Z,23.36
2023-03-31T01:10:26.342Z,23.37
2023-03-31T01:10:57.785Z,23.37
2023-03-31T01:11:29.236Z,23.38
2023-03-31T01:12:00.694Z,23.37
2023-03-31T01:12:32.142Z,23.37
2023-03-31T01:13:06.810Z,23.37
2023-03-31T01:13:38.401Z,23.37
2023-03-31T01:14:09.960Z,23.34
2023-03-31T01:14:41.454Z,23.35
2023-03-31T01:15:12.870Z,23.35
2023-03-31T01:15:44.344Z,23.34
2023-03-31T01:16:15.818Z,23.35
2023-03-31T01:16:47.443Z,23.35
2023-03-31T01:17:19.153Z,23.33
2023-03-31T01:17:50.985Z,23.35
2023-03-31T01:18:22.820Z,23.35
2023-03-31T01:18:54.304Z,23.34
2023-03-31T01:19:25.755Z,23.34
2023-03-31T01:19:57.242Z,23.36
2023-03-31T01:20:28.618Z,23.36
2023-03-31T01:21:00.099Z,23.36
2023-03-31T01:21:31.558Z,23.35
2023-03-31T01:22:02.971Z,23.34
2023-03-31T01:22:34.421Z,23.34
2023-03-31T01:23:05.851Z,23.36
2023-03-31T01:23:37.277Z,23.36
2023-03-31T01:24:08.866Z,23.36
2023-03-31T01:24:40.292Z,23.38
2023-03-31T01:25:11.830Z,23.37
2023-03-31T01:25:43.217Z,23.34
2023-03-31T01:26:14.695Z,23.36
2023-03-31T01:26:46.101Z,23.36
2023-03-31T01:27:17.537Z,23.33
2023-03-31T01:27:48.961Z,23.35
2023-03-31T01:28:20.569Z,23.35
2023-03-31T01:28:52.031Z,23.35
2023-03-31T01:29:23.493Z,23.36
2023-03-31T01:29:54.946Z,23.35
2023-03-31T01:30:26.431Z,23.34
2023-03-31T01:30:57.969Z,23.33
2023-03-31T01:31:29.502Z,23.35
2023-03-31T01:32:00.940Z,23.32
2023-03-31T01:32:32.400Z,23.32
2023-03-31T01:33:03.903Z,23.35
2023-03-31T01:33:35.319Z,23.34
2023-03-31T01:34:06.756Z,23.35
2023-03-31T01:34:38.313Z,23.32
2023-03-31T01:35:09.795Z,23.35
2023-03-31T01:35:41.357Z,23.34
2023-03-31T01:36:12.861Z,23.34
2023-03-31T01:36:44.508Z,23.34
2023-03-31T01:37:15.977Z,23.34
2023-03-31T01:37:47.405Z,23.37
2023-03-31T01:38:18.815Z,23.35
2023-03-31T01:38:53.306Z,23.37
2023-03-31T01:39:24.745Z,23.34
2023-03-31T01:39:56.250Z,23.35
2023-03-31T01:40:27.706Z,23.36
2023-03-31T01:40:59.131Z,23.35
2023-03-31T01:41:30.639Z,23.34
2023-03-31T01:42:02.096Z,23.34
2023-03-31T01:42:33.689Z,23.34
2023-03-31T01:43:05.109Z,23.34
2023-03-31T01:43:36.476Z,23.35
2023-03-31T01:44:07.874Z,23.32
2023-03-31T01:44:39.275Z,23.33
2023-03-31T01:45:13.300Z,23.33
2023-03-31T01:45:44.767Z,23.34
2023-03-31T01:46:16.235Z,23.31
2023-03-31T01:46:47.786Z,23.31
2023-03-31T01:47:21.937Z,23.32
2023-03-31T01:47:53.352Z,23.32
2023-03-31T01:48:24.844Z,23.32
2023-03-31T01:48:56.285Z,23.32
2023-03-31T01:49:27.696Z,23.34
2023-03-31T01:49:59.078Z,23.33
2023-03-31T01:50:30.571Z,23.34
2023-03-31T01:51:01.987Z,23.34
2023-03-31T01:51:33.377Z,23.30
2023-03-31T01:52:04.906Z,23.33
2023-03-31T01:52:36.397Z,23.30
2023-03-31T01:53:07.762Z,23.31
2023-03-31T01:53:39.228Z,23.30
2023-03-31T01:54:10.655Z,23.30
2023-03-31T01:54:42.145Z,23.30
2023-03-31T01:55:16.580Z,23.31
2023-03-31T01:55:48.093Z,23.32
2023-03-31T01:56:19.640Z,23.34
2023-03-31T01:56:53.991Z,23.34
2023-03-31T01:57:25.626Z,23.32
2023-03-31T01:57:57.154Z,23.32
2023-03-31T01:58:31.131Z,23.33
2023-03-31T01:59:02.545Z,23.32
2023-03-31T01:59:33.970Z,23.31
2023-03-31T02:00:05.364Z,23.33
2023-03-31T02:00:36.848Z,23.33
2023-03-31T02:01:08.358Z,23.34
2023-03-31T02:01:39.861Z,23.35
2023-03-31T02:02:11.619Z,23.33
2023-03-31T02:02:43.255Z,23.33
2023-03-31T02:03:14.832Z,23.32
2023-03-31T02:03:46.467Z,23.32
2023-03-31T02:04:17.938Z,23.32
2023-03-31T02:04:49.350Z,23.33
2023-03-31T02:05:20.763Z,23.32
2023-03-31T02:05:52.192Z,23.32
2023-03-31T02:06:23.866Z,23.32
2023-03-31T02:06:55.236Z,23.31
2023-03-31T02:07:26.683Z,23.31
2023-03-31T02:07:58.074Z,23.30
2023-03-31T02:08:29.542Z,23.32
2023-03-31T02:09:00.969Z,23.34
2023-03-31T02:09:32.382Z,23.36
2023-03-31T02:10:03.793Z,23.34
2023-03-31T02:10:35.264Z,23.34
2023-03-31T02:11:06.715Z,23.32
2023-03-31T02:11:38.301Z,23.34
2023-03-31T02:12:09.733Z,23.34
2023-03-31T02:12:41.199Z,23.34
2023-03-31T02:13:12.633Z,23.32
2023-03-31T02:13:44.022Z,23.34
2023-03-31T02:14:15.449Z,23.33
2023-03-31T02:14:46.930Z,23.33
2023-03-31T02:15:21.215Z,23.34
2023-03-31T02:15:52.651Z,23.32
2023-03-31T02:16:24.122Z,23.33
2023-03-31T02:16:58.541Z,23.31
2023-03-31T02:17:30.182Z,23.32
2023-03-31T02:18:01.838Z,23.31
2023-03-31T02:18:33.318Z,23.32
2023-03-31T02:19:04.762Z,23.34
2023-03-31T02:19:36.165Z,23.34
2023-03-31T02:20:07.680Z,23.33
2023-03-31T02:20:39.174Z,23.31
2023-03-31T02:21:10.641Z,23.32
2023-03-31T02:21:42.058Z,23.33
2023-03-31T02:22:13.554Z,23.33
2023-03-31T02:22:45.010Z,23.35
2023-03-31T02:23:16.458Z,23.36
2023-03-31T02:23:47.926Z,23.36
2023-03-31T02:24:19.420Z,23.36
2023-03-31T02:24:50.935Z,23.35
2023-03-31T02:25:22.403Z,23.32
2023-03-31T02:25:53.894Z,23.34
2023-03-31T02:26:25.347Z,23.33
2023-03-31T02:26:56.859Z,23.34
2023-03-31T02:27:28.544Z,23.32
2023-03-31T02:28:00.043Z,23.32
2023-03-31T02:28:31.513Z,23.31
2023-03-31T02:29:03.006Z,23.31
2023-03-31T02:29:34.378Z,23.30
2023-03-31T02:30:05.788Z,23.32
2023-03-31T02:30:37.225Z,23.32
2023-03-31T02:31:08.704Z,23.33
2023-03-31T02:31:40.218Z,23.31
2023-03-31T02:32:11.726Z,23.33
2023-03-31T02:32:43.225Z,23.34
2023-03-31T02:33:17.435Z,23.32
2023-03-31T02:33:48.860Z,23.32
2023-03-31T02:34:20.428Z,23.31
2023-03-31T02:34:51.908Z,23.31
2023-03-31T02:35:23.427Z,23.31
2023-03-31T02:35:54.927Z,23.31
2023-03-31T02:36:26.457Z,23.28
2023-03-31T02:36:57.905Z,23.29
2023-03-31T02:37:29.371Z,23.30
2023-03-31T02:38:00.926Z,23.28
2023-03-31T02:38:32.427Z,23.27
2023-03-31T02:39:03.887Z,23.29
2023-03-31T02:39:35.315Z,23.31
2023-03-31T02:40:06.782Z,23.29
2023-03-31T02:40:38.263Z,23.30
2023-03-31T02:41:09.792Z,23.31
2023-03-31T02:41:41.230Z,23.31
2023-03-31T02:42:12.695Z,23.31
2023-03-31T02:42:44.140Z,23.31
2023-03-31T02:43:15.639Z,23.32
2023-03-31T02:43:47.047Z,23.31
2023-03-31T02:44:18.508Z,23.31
2023-03-31T02:44:49.960Z,23.31
2023-03-31T02:45:21.478Z,23.31
2023-03-31T02:45:52.984Z,23.32
2023-03-31T02:46:24.530Z,23.32
2023-03-31T02:46:55.943Z,23.31
2023-03-31T02:47:27.400Z,23.31
2023-03-31T02:47:58.904Z,23.31
2023-03-31T02:48:30.357Z,23.30
2023-03-31T02:49:01.786Z,23.30
2023-03-31T02:49:33.344Z,23.31
2023-03-31T02:50:04.781Z,23.33
2023-03-31T02:50:38.907Z,23.29
2023-03-31T02:51:11.620Z,23.29
2023-03-31T02:51:43.052Z,23.31
2023-03-31T02:52:14.501Z,23.32
2023-03-31T02:52:45.933Z,23.30
2023-03-31T02:53:17.577Z,23.27
2023-03-31T02:53:51.636Z,23.27
2023-03-31T02:54:23.095Z,23.29
2023-03-31T02:54:54.553Z,23.30
2023-03-31T02:55:25.944Z,23.28
2023-03-31T02:55:57.618Z,23.28
2023-03-31T02:56:29.081Z,23.30
2023-03-31T02:57:00.616Z,23.28
2023-03-31T02:57:32.078Z,23.30
2023-03-31T02:58:03.533Z,23.30
2023-03-31T02:58:34.966Z,23.31
2023-03-31T02:59:06.359Z,23.30
2023-03-31T02:59:37.828Z,23.29
2023-03-31T03:00:09.290Z,23.31
2023-03-31T03:00:40.783Z,23.31
2023-03-31T03:01:12.329Z,23.30
2023-03-31T03:01:43.902Z,23.30
2023-03-31T03:02:15.448Z,23.31
2023-03-31T03:02:47.123Z,23.32
2023-03-31T03:03:18.746Z,23.34
2023-03-31T03:03:50.185Z,23.34
2023-03-31T03:04:21.638Z,23.34
2023-03-31T03:04:53.111Z,23.34
2023-03-31T03:05:24.574Z,23.34
2023-03-31T03:05:56.119Z,23.34
2023-03-31T03:06:27.544Z,23.34
2023-03-31T03:06:59.004Z,23.34
2023-03-31T03:07:30.403Z,23.30
2023-03-31T03:08:01.864Z,23.30
2023-03-31T03:08:33.339Z,23.31
2023-03-31T03:09:04.749Z,23.30
2023-03-31T03:09:36.173Z,23.30
2023-03-31T03:10:07.622Z,23.31
2023-03-31T03:10:39.019Z,23.32
2023-03-31T03:11:10.447Z,23.30
2023-03-31T03:11:44.471Z,23.31
2023-03-31T03:12:15.899Z,23.30
2023-03-31T03:12:47.462Z,23.30
2023-03-31T03:13:18.918Z,23.28
2023-03-31T03:13:50.400Z,23.28
2023-03-31T03:14:21.811Z,23.30
2023-03-31T03:14:53.256Z,23.30
2023-03-31T03:15:24.645Z,23.30
2023-03-31T03:15:56.055Z,23.31
2023-03-31T03:16:27.625Z,23.30
2023-03-31T03:16:59.229Z,23.29
2023-03-31T03:17:30.822Z,23.29
2023-03-31T03:18:02.355Z,23.28
2023-03-31T03:18:33.843Z,23.28
2023-03-31T03:19:05.283Z,23.27
2023-03-31T03:19:36.718Z,23.30
2023-03-31T03:20:08.164Z,23.29
2023-03-31T03:20:39.578Z,23.29
2023-03-31T03:21:11.019Z,23.31
2023-03-31T03:21:42.444Z,23.31
2023-03-31T03:22:13.888Z,23.31
2023-03-31T03:22:45.323Z,23.30
2023-03-31T03:23:16.825Z,23.29
2023-03-31T03:23:48.309Z,23.29
2023-03-31T03:24:19.790Z,23.27
2023-03-31T03:24:51.229Z,23.30
2023-03-31T03:25:22.666Z,23.30
2023-03-31T03:25:54.142Z,23.30
2023-03-31T03:26:25.601Z,23.29
2023-03-31T03:26:57.157Z,23.32
2023-03-31T03:27:28.637Z,23.32
2023-03-31T03:28:00.115Z,23.31
2023-03-31T03:28:31.605Z,23.31
2023-03-31T03:29:03.171Z,23.31
2023-03-31T03:29:34.664Z,23.31
2023-03-31T03:30:06.079Z,23.29
2023-03-31T03:30:37.563Z,23.29
2023-03-31T03:31:09.100Z,23.31
2023-03-31T03:31:40.564Z,23.30
2023-03-31T03:32:12.059Z,23.30
2023-03-31T03:32:43.581Z,23.32
2023-03-31T03:33:15.894Z,23.32
2023-03-31T03:33:47.469Z,23.31
2023-03-31T03:34:18.895Z,23.31
2023-03-31T03:34:50.361Z,23.30
2023-03-31T03:35:21.863Z,23.32
2023-03-31T03:35:53.342Z,23.31
2023-03-31T03:36:24.910Z,23.29
2023-03-31T03:36:56.376Z,23.33
2023-03-31T03:37:27.862Z,23.29
2023-03-31T03:37:59.254Z,23.31
2023-03-31T03:38:30.730Z,23.33
2023-03-31T03:39:02.191Z,23.30
2023-03-31T03:39:33.668Z,23.30
2023-03-31T03:40:05.083Z,23.29
2023-03-31T03:40:36.489Z,23.30
2023-03-31T03:41:07.949Z,23.30
2023-03-31T03:41:39.441Z,23.32
2023-03-31T03:42:10.848Z,23.28
2023-03-31T03:42:42.415Z,23.26
2023-03-31T03:43:13.857Z,23.28
2023-03-31T03:43:45.327Z,23.30
2023-03-31T03:44:16.764Z,23.31
2023-03-31T03:44:51.126Z,23.31
2023-03-31T03:45:22.515Z,23.30
2023-03-31T03:45:53.980Z,23.29
2023-03-31T03:46:25.451Z,23.31
2023-03-31T03:46:56.978Z,23.27
2023-03-31T03:47:28.619Z,23.28
2023-03-31T03:48:00.100Z,23.28
2023-03-31T03:48:31.605Z,23.29
2023-03-31T03:49:02.958Z,23.27
2023-03-31T03:49:34.466Z,23.29
2023-03-31T03:50:05.950Z,23.29
2023-03-31T03:50:37.420Z,23.32
2023-03-31T03:51:08.809Z,23.30
2023-03-31T03:51:40.353Z,23.29
2023-03-31T03:52:11.823Z,23.30
2023-03-31T03:52:43.280Z,23.29
2023-03-31T03:53:14.730Z,23.29
2023-03-31T03:53:50.570Z,23.29
2023-03-31T03:54:21.978Z,23.30
2023-03-31T03:54:53.377Z,23.31
2023-03-31T03:55:24.880Z,23.30
2023-03-31T03:55:56.340Z,23.31
2023-03-31T03:56:27.749Z,23.32
2023-03-31T03:56:59.239Z,23.30
2023-03-31T03:57:30.832Z,23.31
2023-03-31T03:58:02.384Z,23.31
2023-03-31T03:58:36.559Z,23.30
2023-03-31T03:59:07.958Z,23.28
2023-03-31T03:59:39.415Z,23.28
2023-03-31T04:00:13.978Z,23.28
2023-03-31T04:00:45.450Z,23.30
2023-03-31T04:01:16.932Z,23.30
2023-03-31T04:01:48.415Z,23.29
2023-03-31T04:02:19.956Z,23.29
2023-03-31T04:02:51.646Z,23.31
2023-03-31T04:03:23.190Z,23.29
2023-03-31T04:03:54.674Z,23.31
2023-03-31T04:04:26.176Z,23.31
2023-03-31T04:04:57.680Z,23.31
2023-03-31T04:05:31.927Z,23.34
2023-03-31T04:06:03.580Z,23.33
2023-03-31T04:06:35.284Z,23.33
2023-03-31T04:07:06.758Z,23.32
2023-03-31T04:07:38.269Z,23.32
2023-03-31T04:08:09.696Z,23.30
2023-03-31T04:08:41.481Z,23.32
2023-03-31T04:09:12.925Z,23.33
2023-03-31T04:09:44.378Z,23.34
2023-03-31T04:10:15.826Z,23.31
2023-03-31T04:10:47.348Z,23.30
2023-03-31T04:11:19.367Z,23.31
2023-03-31T04:11:50.993Z,23.32
2023-03-31T04:12:22.457Z,23.32
2023-03-31T04:12:53.862Z,23.33
2023-03-31T04:13:25.298Z,23.34
2023-03-31T04:13:56.730Z,23.33
2023-03-31T04:14:28.190Z,23.34
2023-03-31T04:14:59.696Z,23.35
2023-03-31T04:15:33.843Z,23.34
2023-03-31T04:16:05.438Z,23.33
2023-03-31T04:16:37.168Z,23.33
2023-03-31T04:17:08.753Z,23.35
2023-03-31T04:17:40.224Z,23.33
2023-03-31T04:18:13.306Z,23.33
2023-03-31T04:18:46.093Z,23.33
2023-03-31T04:19:17.620Z,23.31
2023-03-31T04:19:49.194Z,23.31
2023-03-31T04:20:20.627Z,23.32
2023-03-31T04:20:52.027Z,23.33
2023-03-31T04:21:23.461Z,23.34
2023-03-31T04:21:54.844Z,23.28
2023-03-31T04:22:26.371Z,23.29
2023-03-31T04:22:57.824Z,23.29
2023-03-31T04:23:29.272Z,23.30
2023-03-31T04:24:00.715Z,23.33
2023-03-31T04:24:32.136Z,23.30
2023-03-31T04:25:03.586Z,23.27
2023-03-31T04:25:35.038Z,23.31
2023-03-31T04:26:06.647Z,23.29
2023-03-31T04:26:38.210Z,23.30
2023-03-31T04:27:09.731Z,23.30
2023-03-31T04:27:41.213Z,23.31
2023-03-31T04:28:12.622Z,23.33
2023-03-31T04:28:44.088Z,23.32
2023-03-31T04:29:15.487Z,23.33
2023-03-31T04:29:46.973Z,23.32
2023-03-31T04:30:18.499Z,23.33
2023-03-31T04:30:49.954Z,23.33
2023-03-31T04:31:21.576Z,23.34
2023-03-31T04:31:53.058Z,23.32
2023-03-31T04:32:24.701Z,23.33
2023-03-31T04:32:59.453Z,23.34
2023-03-31T04:33:30.898Z,23.31
2023-03-31T04:34:02.409Z,23.31
2023-03-31T04:34:34.193Z,23.30
2023-03-31T04:35:05.683Z,23.30
2023-03-31T04:35:37.137Z,23.31
2023-03-31T04:36:08.934Z,23.31
2023-03-31T04:36:40.678Z,23.32
2023-03-31T04:37:12.130Z,23.32
2023-03-31T04:37:43.581Z,23.32
2023-03-31T04:38:15.006Z,23.29
2023-03-31T04:38:46.413Z,23.30
2023-03-31T04:39:17.876Z,23.30
2023-03-31T04:39:49.299Z,23.32
2023-03-31T04:40:20.844Z,23.31
2023-03-31T04:40:52.313Z,23.32
2023-03-31T04:41:23.749Z,23.32
2023-03-31T04:41:55.168Z,23.32
2023-03-31T04:42:26.562Z,23.32
2023-03-31T04:42:58.121Z,23.34
2023-03-31T04:43:29.548Z,23.34
2023-03-31T04:44:01.075Z,23.35
2023-03-31T04:44:32.498Z,23.34
2023-03-31T04:45:04.397Z,23.31
2023-03-31T04:45:35.992Z,23.31
2023-03-31T04:46:07.689Z,23.32
2023-03-31T04:46:39.318Z,23.36
2023-03-31T04:47:10.722Z,23.35
2023-03-31T04:47:42.202Z,23.34
2023-03-31T04:48:13.760Z,23.32
2023-03-31T04:48:45.272Z,23.34
2023-03-31T04:49:16.667Z,23.34
2023-03-31T04:49:48.030Z,23.33
2023-03-31T04:50:19.536Z,23.34
2023-03-31T04:50:50.967Z,23.33
2023-03-31T04:51:22.444Z,23.34
2023-03-31T04:51:53.927Z,23.32
2023-03-31T04:52:27.006Z,23.35
2023-03-31T04:52:58.464Z,23.34
2023-03-31T04:53:29.918Z,23.31
2023-03-31T04:54:01.344Z,23.33
2023-03-31T04:54:32.798Z,23.33
2023-03-31T04:55:04.244Z,23.34
2023-03-31T04:55:35.667Z,23.34
2023-03-31T04:56:07.220Z,23.34
2023-03-31T04:56:38.761Z,23.33
2023-03-31T04:57:10.200Z,23.34
2023-03-31T04:57:41.664Z,23.32
2023-03-31T04:58:13.098Z,23.31
2023-03-31T04:58:44.592Z,23.33
2023-03-31T04:59:16.048Z,23.34
2023-03-31T04:59:47.425Z,23.34
2023-03-31T05:00:18.921Z,23.32
2023-03-31T05:00:50.326Z,23.31
2023-03-31T05:01:21.791Z,23.33
2023-03-31T05:01:53.232Z,23.32
2023-03-31T05:02:25.603Z,23.32
2023-03-31T05:02:57.357Z,23.32
2023-03-31T05:03:29.062Z,23.31
2023-03-31T05:04:00.633Z,23.32
2023-03-31T05:04:32.114Z,23.33
2023-03-31T05:05:03.515Z,23.34
2023-03-31T05:05:35.158Z,23.36
2023-03-31T05:06:06.708Z,23.37
2023-03-31T05:06:38.305Z,23.34
2023-03-31T05:07:09.709Z,23.34
2023-03-31T05:07:41.215Z,23.35
2023-03-31T05:08:12.703Z,23.35
2023-03-31T05:08:44.149Z,23.34
2023-03-31T05:09:15.628Z,23.33
2023-03-31T05:09:47.066Z,23.31
2023-03-31T05:10:18.481Z,23.32
2023-03-31T05:10:49.913Z,23.33
2023-03-31T05:11:21.547Z,23.33
2023-03-31T05:11:52.978Z,23.34
2023-03-31T05:12:24.382Z,23.34
2023-03-31T05:12:55.985Z,23.29
2023-03-31T05:13:27.436Z,23.31
2023-03-31T05:13:58.889Z,23.31
2023-03-31T05:14:30.310Z,23.31
2023-03-31T05:15:04.146Z,23.32
2023-03-31T05:15:37.686Z,23.32
2023-03-31T05:16:09.325Z,23.33
2023-03-31T05:16:41.074Z,23.32
2023-03-31T05:17:12.563Z,23.29
2023-03-31T05:17:44.023Z,23.32
2023-03-31T05:18:15.479Z,23.32
2023-03-31T05:18:47.000Z,23.31
2023-03-31T05:19:18.465Z,23.31
2023-03-31T05:19:52.921Z,23.29
2023-03-31T05:20:24.323Z,23.30
2023-03-31T05:20:58.501Z,23.29
2023-03-31T05:21:30.004Z,23.28
2023-03-31T05:22:01.435Z,23.28
2023-03-31T05:22:32.947Z,23.30
2023-03-31T05:23:04.357Z,23.28
2023-03-31T05:23:38.435Z,23.29
2023-03-31T05:24:09.936Z,23.27
2023-03-31T05:24:41.317Z,23.28
2023-03-31T05:25:12.742Z,23.29
2023-03-31T05:25:44.230Z,23.30
2023-03-31T05:26:15.636Z,23.29
2023-03-31T05:26:47.151Z,23.27
2023-03-31T05:27:18.559Z,23.27
2023-03-31T05:27:50.029Z,23.28
2023-03-31T05:28:21.618Z,23.27
2023-03-31T05:28:53.074Z,23.28
2023-03-31T05:29:24.551Z,23.28
2023-03-31T05:29:55.964Z,23.28
2023-03-31T05:30:27.471Z,23.28
2023-03-31T05:30:58.925Z,23.30
2023-03-31T05:31:30.436Z,23.30
2023-03-31T05:32:02.009Z,23.30
2023-03-31T05:32:33.590Z,23.30
2023-03-31T05:33:05.188Z,23.29
2023-03-31T05:33:36.668Z,23.28
2023-03-31T05:34:08.109Z,23.27
2023-03-31T05:34:39.622Z,23.28
2023-03-31T05:35:11.038Z,23.28
2023-03-31T05:35:44.204Z,23.29
2023-03-31T05:36:15.761Z,23.27
2023-03-31T05:36:47.247Z,23.27
2023-03-31T05:37:18.700Z,23.29
2023-03-31T05:37:50.150Z,23.28
2023-03-31T05:38:21.679Z,23.28
2023-03-31T05:38:53.122Z,23.27
2023-03-31T05:39:24.556Z,23.26
2023-03-31T05:39:55.958Z,23.28
2023-03-31T05:40:27.388Z,23.31
2023-03-31T05:41:01.546Z,23.30
2023-03-31T05:41:33.031Z,23.29
2023-03-31T05:42:04.441Z,23.30
2023-03-31T05:42:35.874Z,23.30
2023-03-31T05:43:07.376Z,23.32
2023-03-31T05:43:38.839Z,23.29
2023-03-31T05:44:10.311Z,23.29
2023-03-31T05:44:41.748Z,23.30
2023-03-31T05:45:13.193Z,23.31
2023-03-31T05:45:44.690Z,23.31
2023-03-31T05:46:16.257Z,23.31
2023-03-31T05:46:47.771Z,23.29
2023-03-31T05:47:19.248Z,23.29
2023-03-31T05:47:50.760Z,23.29
2023-03-31T05:48:22.349Z,23.31
2023-03-31T05:48:53.899Z,23.27
2023-03-31T05:49:25.375Z,23.29
2023-03-31T05:49:56.775Z,23.29
2023-03-31T05:50:28.220Z,23.30
2023-03-31T05:50:59.699Z,23.31
2023-03-31T05:51:31.132Z,23.27
2023-03-31T05:52:02.526Z,23.28
2023-03-31T05:52:34.044Z,23.28
2023-03-31T05:53:05.538Z,23.29
2023-03-31T05:53:36.949Z,23.26
2023-03-31T05:54:08.433Z,23.27
2023-03-31T05:54:39.935Z,23.26
2023-03-31T05:55:14.283Z,23.26
2023-03-31T05:55:45.811Z,23.27
2023-03-31T05:56:17.258Z,23.25
2023-03-31T05:56:48.766Z,23.26
2023-03-31T05:57:20.212Z,23.26
2023-03-31T05:57:51.838Z,23.26
2023-03-31T05:58:23.287Z,23.27
2023-03-31T05:58:54.655Z,23.28
2023-03-31T05:59:26.153Z,23.28
2023-03-31T05:59:57.583Z,23.28
2023-03-31T06:00:29.106Z,23.29
2023-03-31T06:01:00.572Z,23.30
2023-03-31T06:01:32.094Z,23.30
2023-03-31T06:02:03.582Z,23.29
2023-03-31T06:02:35.206Z,23.29
2023-03-31T06:03:06.840Z,23.29
2023-03-31T06:03:38.526Z,23.28
2023-03-31T06:04:10.062Z,23.28
2023-03-31T06:04:41.611Z,23.29
2023-03-31T06:05:13.087Z,23.28
2023-03-31T06:05:44.500Z,23.27
2023-03-31T06:06:15.907Z,23.30
2023-03-31T06:06:47.348Z,23.31
2023-03-31T06:07:18.799Z,23.31
2023-03-31T06:07:50.346Z,23.29
2023-03-31T06:08:21.816Z,23.30
2023-03-31T06:08:53.373Z,23.29
2023-03-31T06:09:24.886Z,23.30
2023-03-31T06:09:56.306Z,23.30
2023-03-31T06:10:27.769Z,23.31
2023-03-31T06:10:59.217Z,23.28
2023-03-31T06:11:30.686Z,23.30
2023-03-31T06:12:02.122Z,23.30
2023-03-31T06:12:33.528Z,23.29
2023-03-31T06:13:04.977Z,23.30
2023-03-31T06:13:36.446Z,23.29
2023-03-31T06:14:07.950Z,23.30
2023-03-31T06:14:39.351Z,23.32
2023-03-31T06:15:10.771Z,23.32
2023-03-31T06:15:42.239Z,23.34
2023-03-31T06:16:13.707Z,23.33
2023-03-31T06:16:45.139Z,23.33
2023-03-31T06:17:16.632Z,23.33
2023-03-31T06:17:48.194Z,23.30
2023-03-31T06:18:19.665Z,23.30
2023-03-31T06:18:54.224Z,23.30
2023-03-31T06:19:25.702Z,23.29
2023-03-31T06:19:57.221Z,23.29
2023-03-31T06:20:28.789Z,23.28
2023-03-31T06:21:00.263Z,23.28
2023-03-31T06:21:31.741Z,23.29
2023-03-31T06:22:03.208Z,23.31
2023-03-31T06:22:34.615Z,23.28
2023-03-31T06:23:06.078Z,23.29
2023-03-31T06:23:37.527Z,23.29
2023-03-31T06:24:08.923Z,23.28
2023-03-31T06:24:40.385Z,23.29
2023-03-31T06:25:11.915Z,23.30
2023-03-31T06:25:50.803Z,23.29
2023-03-31T06:26:23.390Z,23.28
2023-03-31T06:26:54.845Z,23.29
2023-03-31T06:27:26.411Z,23.26
2023-03-31T06:27:57.885Z,23.28
2023-03-31T06:28:32.166Z,23.28
2023-03-31T06:29:03.689Z,23.27
2023-03-31T06:29:35.160Z,23.28
2023-03-31T06:30:06.680Z,23.28
2023-03-31T06:30:38.091Z,23.30
2023-03-31T06:31:09.767Z,23.28
2023-03-31T06:31:41.397Z,23.27
2023-03-31T06:32:12.886Z,23.28
2023-03-31T06:32:44.319Z,23.31
2023-03-31T06:33:15.821Z,23.31
2023-03-31T06:33:48.924Z,23.31
2023-03-31T06:34:21.455Z,23.30
2023-03-31T06:34:53.134Z,23.30
2023-03-31T06:35:24.565Z,23.28
2023-03-31T06:35:55.999Z,23.27
2023-03-31T06:36:27.437Z,23.29
2023-03-31T06:36:58.828Z,23.32
2023-03-31T06:37:30.277Z,23.31
2023-03-31T06:38:01.704Z,23.31
2023-03-31T06:38:33.191Z,23.28
2023-03-31T06:39:04.631Z,23.27
2023-03-31T06:39:36.087Z,23.27
2023-03-31T06:40:07.526Z,23.28
2023-03-31T06:40:41.499Z,23.26
2023-03-31T06:41:13.199Z,23.26
2023-03-31T06:41:44.709Z,23.25
2023-03-31T06:42:16.168Z,23.26
2023-03-31T06:42:47.625Z,23.26
2023-03-31T06:43:19.050Z,23.24
2023-03-31T06:43:50.542Z,23.25
2023-03-31T06:44:24.967Z,23.26
2023-03-31T06:44:56.470Z,23.25
2023-03-31T06:45:27.991Z,23.26
2023-03-31T06:45:59.483Z,23.24
2023-03-31T06:46:30.999Z,23.25
2023-03-31T06:47:02.514Z,23.26
2023-03-31T06:47:33.978Z,23.23